createdAt,value
2022-09-15T00:00:32.935Z,1002.12
2022-09-15T00:01:32.976Z,1002.04
2022-09-15T00:02:33.085Z,1002.07
2022-09-15T00:03:33.016Z,1002.15
2022-09-15T00:04:32.885Z,1002.20
2022-09-15T00:05:32.875Z,1002.18
2022-09-15T00:06:32.857Z,1002.11
2022-09-15T00:07:32.855Z,1002.15
2022-09-15T00:08:32.840Z,1002.23
2022-09-15T00:09:32.863Z,1002.21
2022-09-15T00:10:32.807Z,1002.24
2022-09-15T00:11:32.800Z,1002.22
2022-09-15T00:12:32.778Z,1002.26
2022-09-15T00:13:32.769Z,1002.28
2022-09-15T00:14:32.758Z,1002.30
2022-09-15T00:15:32.768Z,1002.34
2022-09-15T00:16:32.944Z,1002.34
2022-09-15T00:17:32.727Z,1002.33
2022-09-15T00:18:32.705Z,1002.47
2022-09-15T00:19:32.690Z,1002.35
2022-09-15T00:20:32.690Z,1002.47
2022-09-15T00:21:32.710Z,1002.45
2022-09-15T00:22:32.661Z,1002.43
2022-09-15T00:23:32.659Z,1002.44
2022-09-15T00:24:32.632Z,1002.47
2022-09-15T00:25:32.626Z,1002.45
2022-09-15T00:26:32.612Z,1002.45
2022-09-15T00:27:32.621Z,1002.48
2022-09-15T00:28:32.582Z,1002.47
2022-09-15T00:29:32.563Z,1002.47
2022-09-15T00:30:32.592Z,1002.45
2022-09-15T00:31:32.572Z,1002.50
2022-09-15T00:32:32.525Z,1002.53
2022-09-15T00:33:32.633Z,1002.48
2022-09-15T00:34:32.505Z,1002.46
2022-09-15T00:35:32.511Z,1002.44
2022-09-15T00:36:32.499Z,1002.47
2022-09-15T00:37:32.476Z,1002.48
2022-09-15T00:38:32.456Z,1002.42
2022-09-15T00:39:32.475Z,1002.45
2022-09-15T00:40:32.544Z,1002.45
2022-09-15T00:41:32.417Z,1002.43
2022-09-15T00:42:32.407Z,1002.47
2022-09-15T00:43:32.396Z,1002.43
2022-09-15T00:44:32.377Z,1002.42
2022-09-15T00:45:32.412Z,1002.42
2022-09-15T00:46:32.357Z,1002.42
2022-09-15T00:47:32.340Z,1002.44
2022-09-15T00:48:32.328Z,1002.40
2022-09-15T00:49:32.333Z,1002.45
2022-09-15T00:50:32.300Z,1002.35
2022-09-15T00:51:32.319Z,1002.37
2022-09-15T00:52:32.278Z,1002.37
2022-09-15T00:53:32.263Z,1002.40
2022-09-15T00:54:32.250Z,1002.39
2022-09-15T00:55:32.249Z,1002.39
2022-09-15T00:56:32.221Z,1002.38
2022-09-15T00:57:32.248Z,1002.38
2022-09-15T00:58:32.213Z,1002.34
2022-09-15T00:59:32.192Z,1002.38
2022-09-15T01:00:32.183Z,1002.41
2022-09-15T01:01:32.228Z,1002.41
2022-09-15T01:02:32.210Z,1002.44
2022-09-15T01:03:32.239Z,1002.40
2022-09-15T01:04:32.131Z,1002.35
2022-09-15T01:05:32.134Z,1002.39
2022-09-15T01:06:32.105Z,1002.36
2022-09-15T01:07:32.084Z,1002.37
2022-09-15T01:08:32.080Z,1002.32
2022-09-15T01:09:32.096Z,1002.28
2022-09-15T01:10:32.045Z,1002.26
2022-09-15T01:11:32.036Z,1002.28
2022-09-15T01:12:32.016Z,1002.28
2022-09-15T01:13:32.021Z,1002.21
2022-09-15T01:14:32.000Z,1002.27
2022-09-15T01:15:32.106Z,1002.21
2022-09-15T01:16:34.858Z,1002.19
2022-09-15T01:17:31.949Z,1002.23
2022-09-15T01:18:31.934Z,1002.28
2022-09-15T01:19:31.923Z,1002.24
2022-09-15T01:20:31.905Z,1002.34
2022-09-15T01:21:31.932Z,1002.34
2022-09-15T01:22:31.884Z,1002.32
2022-09-15T01:23:31.878Z,1002.30
2022-09-15T01:24:31.865Z,1002.32
2022-09-15T01:25:31.859Z,1002.34
2022-09-15T01:26:31.829Z,1002.34
2022-09-15T01:27:42.177Z,1002.32
2022-09-15T01:28:32.804Z,1002.31
2022-09-15T01:29:31.796Z,1002.29
2022-09-15T01:30:31.777Z,1002.26
2022-09-15T01:31:31.816Z,1002.26
2022-09-15T01:32:31.749Z,1002.25
2022-09-15T01:33:31.768Z,1002.30
2022-09-15T01:34:31.725Z,1002.27
2022-09-15T01:35:31.723Z,1002.27
2022-09-15T01:36:31.709Z,1002.21
2022-09-15T01:37:31.689Z,1002.22
2022-09-15T01:38:31.700Z,1002.23
2022-09-15T01:39:31.701Z,1002.27
2022-09-15T01:40:31.732Z,1002.20
2022-09-15T01:41:31.664Z,1002.27
2022-09-15T01:42:31.642Z,1002.26
2022-09-15T01:43:31.633Z,1002.33
2022-09-15T01:44:31.617Z,1002.28
2022-09-15T01:45:31.744Z,1002.32
2022-09-15T01:46:31.602Z,1002.24
2022-09-15T01:47:31.591Z,1002.33
2022-09-15T01:48:31.567Z,1002.37
2022-09-15T01:49:31.555Z,1002.31
2022-09-15T01:50:31.541Z,1002.36
2022-09-15T01:51:31.641Z,1002.34
2022-09-15T01:52:31.518Z,1002.36
2022-09-15T01:53:31.507Z,1002.39
2022-09-15T01:54:31.499Z,1002.35
2022-09-15T01:55:31.479Z,1002.42
2022-09-15T01:56:31.471Z,1002.34
2022-09-15T01:57:31.479Z,1002.31
2022-09-15T01:58:31.440Z,1002.31
2022-09-15T01:59:31.430Z,1002.28
2022-09-15T02:00:31.414Z,1002.24
2022-09-15T02:01:31.437Z,1002.24
2022-09-15T02:02:31.424Z,1002.27
2022-09-15T02:03:31.494Z,1002.22
2022-09-15T02:04:31.364Z,1002.28
2022-09-15T02:05:31.362Z,1002.31
2022-09-15T02:06:31.345Z,1002.34
2022-09-15T02:07:31.337Z,1002.28
2022-09-15T02:08:31.313Z,1002.29
2022-09-15T02:09:31.324Z,1002.35
2022-09-15T02:10:31.292Z,1002.31
2022-09-15T02:11:31.282Z,1002.31
2022-09-15T02:12:31.286Z,1002.32
2022-09-15T02:13:31.259Z,1002.35
2022-09-15T02:14:31.240Z,1002.36
2022-09-15T02:15:31.271Z,1002.36
2022-09-15T02:16:31.287Z,1002.32
2022-09-15T02:17:31.206Z,1002.36
2022-09-15T02:18:31.187Z,1002.35
2022-09-15T02:19:31.190Z,1002.37
2022-09-15T02:20:31.158Z,1002.37
2022-09-15T02:21:31.178Z,1002.35
2022-09-15T02:22:31.138Z,1002.34
2022-09-15T02:23:31.129Z,1002.35
2022-09-15T02:24:31.109Z,1002.29
2022-09-15T02:25:31.131Z,1002.26
2022-09-15T02:26:31.125Z,1002.29
2022-09-15T02:27:31.110Z,1002.27
2022-09-15T02:28:31.070Z,1002.25
2022-09-15T02:29:31.053Z,1002.22
2022-09-15T02:30:31.032Z,1002.22
2022-09-15T02:31:31.072Z,1002.26
2022-09-15T02:32:31.001Z,1002.25
2022-09-15T02:33:31.033Z,1002.27
2022-09-15T02:34:30.991Z,1002.23
2022-09-15T02:35:30.974Z,1002.29
2022-09-15T02:36:30.965Z,1002.26
2022-09-15T02:37:30.944Z,1002.24
2022-09-15T02:38:30.933Z,1002.23
2022-09-15T02:39:31.041Z,1002.19
2022-09-15T02:40:30.952Z,1002.22
2022-09-15T02:41:30.897Z,1002.20
2022-09-15T02:42:30.887Z,1002.17
2022-09-15T02:43:30.876Z,1002.15
2022-09-15T02:44:30.855Z,1002.21
2022-09-15T02:45:31.008Z,1002.16
2022-09-15T02:46:30.846Z,1002.10
2022-09-15T02:47:30.817Z,1002.12
2022-09-15T02:48:30.807Z,1002.20
2022-09-15T02:49:30.800Z,1002.20
2022-09-15T02:50:30.789Z,1002.18
2022-09-15T02:51:30.803Z,1002.18
2022-09-15T02:52:30.770Z,1002.17
2022-09-15T02:53:30.750Z,1002.14
2022-09-15T02:54:30.738Z,1002.16
2022-09-15T02:55:30.719Z,1002.20
2022-09-15T02:56:30.721Z,1002.20
2022-09-15T02:57:30.816Z,1002.19
2022-09-15T02:58:30.681Z,1002.15
2022-09-15T02:59:30.662Z,1002.16
2022-09-15T03:00:30.683Z,1002.15
2022-09-15T03:01:30.651Z,1002.16
2022-09-15T03:02:30.660Z,1002.20
2022-09-15T03:03:30.636Z,1002.22
2022-09-15T03:04:30.612Z,1002.18
2022-09-15T03:05:30.599Z,1002.17
2022-09-15T03:06:30.582Z,1002.23
2022-09-15T03:07:30.563Z,1002.23
2022-09-15T03:08:30.552Z,1002.25
2022-09-15T03:09:30.574Z,1002.26
2022-09-15T03:10:30.540Z,1002.30
2022-09-15T03:11:30.514Z,1002.32
2022-09-15T03:12:30.514Z,1002.33
2022-09-15T03:13:30.494Z,1002.33
2022-09-15T03:14:30.489Z,1002.35
2022-09-15T03:15:30.607Z,1002.33
2022-09-15T03:16:30.572Z,1002.35
2022-09-15T03:17:30.444Z,1002.38
2022-09-15T03:18:30.436Z,1002.38
2022-09-15T03:19:30.421Z,1002.40
2022-09-15T03:20:30.472Z,1002.43
2022-09-15T03:21:30.524Z,1002.36
2022-09-15T03:22:30.378Z,1002.41
2022-09-15T03:23:30.367Z,1002.41
2022-09-15T03:24:30.360Z,1002.38
2022-09-15T03:25:30.340Z,1002.37
2022-09-15T03:26:30.335Z,1002.43
2022-09-15T03:27:30.429Z,1002.42
2022-09-15T03:28:30.309Z,1002.37
2022-09-15T03:29:30.291Z,1002.37
2022-09-15T03:30:30.291Z,1002.37
2022-09-15T03:31:30.305Z,1002.42
2022-09-15T03:32:30.258Z,1002.40
2022-09-15T03:33:30.262Z,1002.44
2022-09-15T03:34:30.241Z,1002.45
2022-09-15T03:35:30.221Z,1002.44
2022-09-15T03:36:30.213Z,1002.42
2022-09-15T03:37:30.202Z,1002.44
2022-09-15T03:38:30.184Z,1002.44
2022-09-15T03:39:30.290Z,1002.44
2022-09-15T03:40:30.191Z,1002.39
2022-09-15T03:41:30.144Z,1002.39
2022-09-15T03:42:30.134Z,1002.42
2022-09-15T03:43:30.114Z,1002.36
2022-09-15T03:44:30.104Z,1002.40
2022-09-15T03:45:30.183Z,1002.37
2022-09-15T03:46:30.086Z,1002.39
2022-09-15T03:47:30.067Z,1002.35
2022-09-15T03:48:30.061Z,1002.34
2022-09-15T03:49:30.036Z,1002.32
2022-09-15T03:50:30.035Z,1002.31
2022-09-15T03:51:30.048Z,1002.29
2022-09-15T03:52:30.023Z,1002.31
2022-09-15T03:53:29.988Z,1002.30
2022-09-15T03:54:29.979Z,1002.32
2022-09-15T03:55:29.961Z,1002.33
2022-09-15T03:56:29.957Z,1002.34
2022-09-15T03:57:30.001Z,1002.33
2022-09-15T03:58:30.935Z,1002.34
2022-09-15T03:59:29.919Z,1002.30
2022-09-15T04:00:29.953Z,1002.28
2022-09-15T04:01:29.893Z,1002.30
2022-09-15T04:02:29.890Z,1002.27
2022-09-15T04:03:29.903Z,1002.31
2022-09-15T04:04:29.852Z,1002.27
2022-09-15T04:05:29.840Z,1002.27
2022-09-15T04:06:29.847Z,1002.28
2022-09-15T04:07:29.821Z,1002.19
2022-09-15T04:08:29.802Z,1002.20
2022-09-15T04:09:29.908Z,1002.31
2022-09-15T04:10:29.773Z,1002.28
2022-09-15T04:11:29.770Z,1002.28
2022-09-15T04:12:29.753Z,1002.22
2022-09-15T04:13:29.744Z,1002.27
2022-09-15T04:14:29.739Z,1002.28
2022-09-15T04:15:29.756Z,1002.31
2022-09-15T04:16:29.799Z,1002.35
2022-09-15T04:17:29.695Z,1002.29
2022-09-15T04:18:29.675Z,1002.37
2022-09-15T04:19:29.668Z,1002.30
2022-09-15T04:20:29.647Z,1002.35
2022-09-15T04:21:29.677Z,1002.37
2022-09-15T04:22:29.628Z,1002.35
2022-09-15T04:23:29.629Z,1002.36
2022-09-15T04:24:29.603Z,1002.34
2022-09-15T04:25:29.580Z,1002.33
2022-09-15T04:26:29.582Z,1002.30
2022-09-15T04:27:29.579Z,1002.40
2022-09-15T04:28:29.550Z,1002.44
2022-09-15T04:29:29.533Z,1002.46
2022-09-15T04:30:29.520Z,1002.39
2022-09-15T04:31:29.567Z,1002.40
2022-09-15T04:32:29.505Z,1002.43
2022-09-15T04:33:29.601Z,1002.44
2022-09-15T04:34:29.474Z,1002.39
2022-09-15T04:35:29.461Z,1002.41
2022-09-15T04:36:29.444Z,1002.47
2022-09-15T04:37:29.432Z,1002.42
2022-09-15T04:38:29.425Z,1002.50
2022-09-15T04:39:29.443Z,1002.48
2022-09-15T04:40:29.427Z,1002.40
2022-09-15T04:41:29.385Z,1002.47
2022-09-15T04:42:29.373Z,1002.46
2022-09-15T04:43:29.355Z,1002.45
2022-09-15T04:44:29.344Z,1002.44
2022-09-15T04:45:29.378Z,1002.53
2022-09-15T04:46:29.350Z,1002.48
2022-09-15T04:47:29.308Z,1002.47
2022-09-15T04:48:29.296Z,1002.51
2022-09-15T04:49:29.288Z,1002.47
2022-09-15T04:50:29.276Z,1002.44
2022-09-15T04:51:29.286Z,1002.53
2022-09-15T04:52:29.251Z,1002.52
2022-09-15T04:53:29.235Z,1002.50
2022-09-15T04:54:29.226Z,1002.51
2022-09-15T04:55:29.212Z,1002.46
2022-09-15T04:56:29.199Z,1002.42
2022-09-15T04:57:29.304Z,1002.45
2022-09-15T04:58:29.179Z,1002.47
2022-09-15T04:59:29.180Z,1002.48
2022-09-15T05:00:29.157Z,1002.48
2022-09-15T05:01:29.150Z,1002.47
2022-09-15T05:02:29.158Z,1002.45
2022-09-15T05:03:29.211Z,1002.48
2022-09-15T05:04:29.108Z,1002.47
2022-09-15T05:05:29.082Z,1002.46
2022-09-15T05:06:29.082Z,1002.52
2022-09-15T05:07:29.061Z,1002.47
2022-09-15T05:08:29.044Z,1002.45
2022-09-15T05:09:29.133Z,1002.51
2022-09-15T05:10:29.023Z,1002.48
2022-09-15T05:11:29.012Z,1002.54
2022-09-15T05:12:29.016Z,1002.49
2022-09-15T05:13:28.984Z,1002.58
2022-09-15T05:14:28.983Z,1002.55
2022-09-15T05:15:29.075Z,1002.65
2022-09-15T05:16:29.006Z,1002.60
2022-09-15T05:17:28.935Z,1002.56
2022-09-15T05:18:28.927Z,1002.62
2022-09-15T05:19:28.907Z,1002.51
2022-09-15T05:20:28.996Z,1002.54
2022-09-15T05:21:28.908Z,1002.58
2022-09-15T05:22:28.868Z,1002.58
2022-09-15T05:23:28.857Z,1002.61
2022-09-15T05:24:28.838Z,1002.53
2022-09-15T05:25:28.838Z,1002.57
2022-09-15T05:26:28.846Z,1002.58
2022-09-15T05:27:28.909Z,1002.58
2022-09-15T05:28:28.839Z,1002.60
2022-09-15T05:29:28.784Z,1002.56
2022-09-15T05:30:38.900Z,1002.61
2022-09-15T05:31:29.777Z,1002.59
2022-09-15T05:32:28.760Z,1002.63
2022-09-15T05:33:28.759Z,1002.62
2022-09-15T05:34:28.721Z,1002.59
2022-09-15T05:35:28.709Z,1002.60
2022-09-15T05:36:28.712Z,1002.66
2022-09-15T05:37:28.682Z,1002.64
2022-09-15T05:38:28.671Z,1002.60
2022-09-15T05:39:28.701Z,1002.66
2022-09-15T05:40:28.701Z,1002.62
2022-09-15T05:41:28.643Z,1002.67
2022-09-15T05:42:28.624Z,1002.61
2022-09-15T05:43:28.604Z,1002.61
2022-09-15T05:44:28.595Z,1002.66
2022-09-15T05:45:28.705Z,1002.60
2022-09-15T05:46:28.614Z,1002.64
2022-09-15T05:47:28.556Z,1002.62
2022-09-15T05:48:28.545Z,1002.63
2022-09-15T05:49:28.536Z,1002.61
2022-09-15T05:50:28.516Z,1002.55
2022-09-15T05:51:28.539Z,1002.58
2022-09-15T05:52:28.497Z,1002.55
2022-09-15T05:53:28.495Z,1002.60
2022-09-15T05:54:28.472Z,1002.60
2022-09-15T05:55:28.449Z,1002.63
2022-09-15T05:56:28.462Z,1002.65
2022-09-15T05:57:28.460Z,1002.61
2022-09-15T05:58:28.430Z,1002.62
2022-09-15T05:59:28.399Z,1002.64
2022-09-15T06:00:28.408Z,1002.67
2022-09-15T06:01:28.465Z,1002.66
2022-09-15T06:02:28.414Z,1002.65
2022-09-15T06:03:30.945Z,1002.60
2022-09-15T06:04:28.343Z,1002.69
2022-09-15T06:05:28.331Z,1002.60
2022-09-15T06:06:28.325Z,1002.60
2022-09-15T06:07:28.311Z,1002.59
2022-09-15T06:08:28.293Z,1002.61
2022-09-15T06:09:28.323Z,1002.57
2022-09-15T06:10:28.264Z,1002.60
2022-09-15T06:11:28.253Z,1002.64
2022-09-15T06:12:28.243Z,1002.59
2022-09-15T06:13:28.225Z,1002.60
2022-09-15T06:14:28.215Z,1002.65
2022-09-15T06:15:28.305Z,1002.59
2022-09-15T06:16:28.231Z,1002.63
2022-09-15T06:17:28.177Z,1002.59
2022-09-15T06:18:28.166Z,1002.58
2022-09-15T06:19:28.148Z,1002.60
2022-09-15T06:20:28.146Z,1002.60
2022-09-15T06:21:28.161Z,1002.59
2022-09-15T06:22:28.129Z,1002.61
2022-09-15T06:23:28.098Z,1002.61
2022-09-15T06:24:28.099Z,1002.61
2022-09-15T06:25:28.079Z,1002.68
2022-09-15T06:26:28.069Z,1002.70
2022-09-15T06:27:28.159Z,1002.61
2022-09-15T06:28:28.049Z,1002.66
2022-09-15T06:29:28.030Z,1002.64
2022-09-15T06:30:28.018Z,1002.57
2022-09-15T06:31:28.088Z,1002.65
2022-09-15T06:32:28.982Z,1002.69
2022-09-15T06:33:28.000Z,1002.71
2022-09-15T06:34:27.972Z,1002.72
2022-09-15T06:35:27.952Z,1002.74
2022-09-15T06:36:27.943Z,1002.73
2022-09-15T06:37:27.933Z,1002.78
2022-09-15T06:38:27.914Z,1002.79
2022-09-15T06:39:27.948Z,1002.82
2022-09-15T06:40:27.943Z,1002.80
2022-09-15T06:41:27.886Z,1002.84
2022-09-15T06:42:27.874Z,1002.86
2022-09-15T06:43:27.845Z,1002.83
2022-09-15T06:44:27.845Z,1002.87
2022-09-15T06:45:27.996Z,1002.85
2022-09-15T06:46:27.889Z,1002.90
2022-09-15T06:47:27.806Z,1002.86
2022-09-15T06:48:27.787Z,1002.89
2022-09-15T06:49:27.777Z,1002.91
2022-09-15T06:50:27.758Z,1002.88
2022-09-15T06:51:27.777Z,1002.90
2022-09-15T06:52:27.737Z,1002.86
2022-09-15T06:53:27.719Z,1002.88
2022-09-15T06:54:27.735Z,1002.90
2022-09-15T06:55:27.699Z,1002.86
2022-09-15T06:56:27.691Z,1002.90
2022-09-15T06:57:27.700Z,1002.92
2022-09-15T06:58:27.660Z,1002.92
2022-09-15T06:59:27.640Z,1002.91
2022-09-15T07:00:27.633Z,1002.89
2022-09-15T07:01:27.621Z,1002.86
2022-09-15T07:02:27.659Z,1002.90
2022-09-15T07:03:27.822Z,1002.94
2022-09-15T07:04:27.583Z,1002.93
2022-09-15T07:05:27.572Z,1002.96
2022-09-15T07:06:27.552Z,1002.88
2022-09-15T07:07:27.546Z,1002.88
2022-09-15T07:08:27.535Z,1002.92
2022-09-15T07:09:27.563Z,1002.91
2022-09-15T07:10:27.515Z,1002.92
2022-09-15T07:11:27.495Z,1002.98
2022-09-15T07:12:27.487Z,1003.01
2022-09-15T07:13:27.480Z,1002.97
2022-09-15T07:14:27.477Z,1002.96
2022-09-15T07:15:27.467Z,1002.99
2022-09-15T07:16:28.420Z,1002.98
2022-09-15T07:17:27.418Z,1002.98
2022-09-15T07:18:27.414Z,1003.03
2022-09-15T07:19:27.387Z,1002.98
2022-09-15T07:20:27.390Z,1003.02
2022-09-15T07:21:27.419Z,1002.99
2022-09-15T07:22:27.369Z,1002.97
2022-09-15T07:23:27.340Z,1003.05
2022-09-15T07:24:27.344Z,1003.06
2022-09-15T07:25:27.310Z,1003.06
2022-09-15T07:26:27.300Z,1003.14
2022-09-15T07:27:27.403Z,1003.08
2022-09-15T07:28:27.274Z,1003.14
2022-09-15T07:29:27.297Z,1003.11
2022-09-15T07:30:27.257Z,1003.13
2022-09-15T07:31:27.289Z,1003.08
2022-09-15T07:32:27.263Z,1003.02
2022-09-15T07:33:27.256Z,1003.02
2022-09-15T07:34:27.224Z,1003.07
2022-09-15T07:35:27.186Z,1003.07
2022-09-15T07:36:27.175Z,1003.11
2022-09-15T07:37:28.114Z,1003.09
2022-09-15T07:38:27.147Z,1003.11
2022-09-15T07:39:27.255Z,1003.06
2022-09-15T07:40:27.232Z,1002.97
2022-09-15T07:41:27.118Z,1003.04
2022-09-15T07:42:27.111Z,1003.03
2022-09-15T07:43:27.092Z,1003.04
2022-09-15T07:44:27.068Z,1003.01
2022-09-15T07:45:27.137Z,1003.02
2022-09-15T07:46:27.050Z,1003.05
2022-09-15T07:47:27.030Z,1003.04
2022-09-15T07:48:27.020Z,1003.03
2022-09-15T07:49:27.009Z,1003.10
2022-09-15T07:50:26.990Z,1003.09
2022-09-15T07:51:27.123Z,1003.12
2022-09-15T07:52:26.970Z,1003.08
2022-09-15T07:53:26.961Z,1003.08
2022-09-15T07:54:26.968Z,1003.08
2022-09-15T07:55:26.940Z,1003.09
2022-09-15T07:56:26.919Z,1003.16
2022-09-15T07:57:26.942Z,1003.13
2022-09-15T07:58:26.892Z,1003.09
2022-09-15T07:59:26.905Z,1003.07
2022-09-15T08:00:26.926Z,1003.04
2022-09-15T08:01:26.876Z,1003.03
2022-09-15T08:02:26.922Z,1003.06
2022-09-15T08:03:26.935Z,1003.03
2022-09-15T08:04:26.815Z,1003.04
2022-09-15T08:05:26.806Z,1003.10
2022-09-15T08:06:26.796Z,1003.14
2022-09-15T08:07:26.783Z,1003.20
2022-09-15T08:08:26.764Z,1003.18
2022-09-15T08:09:26.806Z,1003.17
2022-09-15T08:10:26.737Z,1003.23
2022-09-15T08:11:26.734Z,1003.23
2022-09-15T08:12:26.710Z,1003.25
2022-09-15T08:13:26.698Z,1003.24
2022-09-15T08:14:26.691Z,1003.22
2022-09-15T08:15:26.799Z,1003.31
2022-09-15T08:16:26.762Z,1003.32
2022-09-15T08:17:26.652Z,1003.29
2022-09-15T08:18:26.640Z,1003.31
2022-09-15T08:19:26.631Z,1003.33
2022-09-15T08:20:26.612Z,1003.31
2022-09-15T08:21:26.631Z,1003.40
2022-09-15T08:22:26.586Z,1003.34
2022-09-15T08:23:26.573Z,1003.34
2022-09-15T08:24:26.562Z,1003.37
2022-09-15T08:25:26.555Z,1003.29
2022-09-15T08:26:26.573Z,1003.36
2022-09-15T08:27:26.672Z,1003.39
2022-09-15T08:28:26.506Z,1003.37
2022-09-15T08:29:26.504Z,1003.37
2022-09-15T08:30:26.498Z,1003.37
2022-09-15T08:31:26.598Z,1003.36
2022-09-15T08:32:26.464Z,1003.40
2022-09-15T08:33:26.483Z,1003.41
2022-09-15T08:34:26.437Z,1003.42
2022-09-15T08:35:26.427Z,1003.44
2022-09-15T08:36:26.418Z,1003.42
2022-09-15T08:37:26.407Z,1003.49
2022-09-15T08:38:26.389Z,1003.41
2022-09-15T08:39:26.398Z,1003.37
2022-09-15T08:40:26.447Z,1003.42
2022-09-15T08:41:26.350Z,1003.43
2022-09-15T08:42:26.340Z,1003.44
2022-09-15T08:43:26.332Z,1003.48
2022-09-15T08:44:26.310Z,1003.52
2022-09-15T08:45:26.412Z,1003.50
2022-09-15T08:46:26.347Z,1003.50
2022-09-15T08:47:26.273Z,1003.53
2022-09-15T08:48:26.264Z,1003.49
2022-09-15T08:49:41.200Z,1003.54
2022-09-15T08:50:27.425Z,1003.55
2022-09-15T08:51:26.223Z,1003.55
2022-09-15T08:52:26.212Z,1003.46
2022-09-15T08:53:26.231Z,1003.51
2022-09-15T08:54:26.185Z,1003.50
2022-09-15T08:55:26.197Z,1003.48
2022-09-15T08:56:26.175Z,1003.49
2022-09-15T08:57:26.157Z,1003.52
2022-09-15T08:58:26.156Z,1003.59
2022-09-15T08:59:26.127Z,1003.55
2022-09-15T09:00:26.109Z,1003.60
2022-09-15T09:01:26.165Z,1003.61
2022-09-15T09:02:26.205Z,1003.59
2022-09-15T09:03:26.081Z,1003.64
2022-09-15T09:04:26.062Z,1003.59
2022-09-15T09:05:26.049Z,1003.67
2022-09-15T09:06:26.031Z,1003.65
2022-09-15T09:07:26.023Z,1003.64
2022-09-15T09:08:26.040Z,1003.63
2022-09-15T09:09:26.038Z,1003.55
2022-09-15T09:10:25.981Z,1003.55
2022-09-15T09:11:25.975Z,1003.59
2022-09-15T09:12:26.011Z,1003.58
2022-09-15T09:13:25.951Z,1003.58
2022-09-15T09:14:26.054Z,1003.57
2022-09-15T09:15:26.006Z,1003.49
2022-09-15T09:16:25.904Z,1003.62
2022-09-15T09:17:25.894Z,1003.68
2022-09-15T09:18:25.884Z,1003.62
2022-09-15T09:19:30.038Z,1003.58
2022-09-15T09:20:26.896Z,1003.53
2022-09-15T09:21:25.855Z,1003.57
2022-09-15T09:22:25.924Z,1003.57
2022-09-15T09:23:25.843Z,1003.55
2022-09-15T09:24:25.806Z,1003.60
2022-09-15T09:25:28.151Z,1003.59
2022-09-15T09:26:25.817Z,1003.67
2022-09-15T09:27:25.774Z,1003.59
2022-09-15T09:28:25.761Z,1003.58
2022-09-15T09:29:25.750Z,1003.58
2022-09-15T09:30:25.727Z,1003.56
2022-09-15T09:31:25.777Z,1003.55
2022-09-15T09:32:25.787Z,1003.51
2022-09-15T09:33:25.701Z,1003.55
2022-09-15T09:34:25.673Z,1003.49
2022-09-15T09:35:25.681Z,1003.49
2022-09-15T09:36:25.652Z,1003.48
2022-09-15T09:37:25.642Z,1003.54
2022-09-15T09:38:25.803Z,1003.51
2022-09-15T09:39:25.622Z,1003.49
2022-09-15T09:40:25.645Z,1003.46
2022-09-15T09:41:25.593Z,1003.53
2022-09-15T09:42:25.580Z,1003.53
2022-09-15T09:43:25.565Z,1003.53
2022-09-15T09:44:25.589Z,1003.50
2022-09-15T09:45:25.548Z,1003.50
2022-09-15T09:46:25.662Z,1003.50
2022-09-15T09:47:25.544Z,1003.48
2022-09-15T09:48:25.497Z,1003.49
2022-09-15T09:49:25.490Z,1003.55
2022-09-15T09:50:25.589Z,1003.56
2022-09-15T09:51:25.467Z,1003.55
2022-09-15T09:52:25.532Z,1003.57
2022-09-15T09:53:25.438Z,1003.53
2022-09-15T09:54:25.434Z,1003.50
2022-09-15T09:55:25.411Z,1003.51
2022-09-15T09:56:25.431Z,1003.48
2022-09-15T09:57:25.391Z,1003.51
2022-09-15T09:58:25.402Z,1003.58
2022-09-15T09:59:25.380Z,1003.47
2022-09-15T10:00:25.354Z,1003.41
2022-09-15T10:01:25.427Z,1003.43
2022-09-15T10:02:25.362Z,1003.49
2022-09-15T10:03:29.283Z,1003.51
2022-09-15T10:04:26.374Z,1003.46
2022-09-15T10:05:25.293Z,1003.47
2022-09-15T10:06:25.274Z,1003.46
2022-09-15T10:07:25.266Z,1003.45
2022-09-15T10:08:25.277Z,1003.48
2022-09-15T10:09:27.843Z,1003.51
2022-09-15T10:10:25.228Z,1003.48
2022-09-15T10:11:25.227Z,1003.45
2022-09-15T10:12:25.203Z,1003.50
2022-09-15T10:13:25.208Z,1003.41
2022-09-15T10:14:25.307Z,1003.43
2022-09-15T10:15:25.172Z,1003.49
2022-09-15T10:16:25.225Z,1003.44
2022-09-15T10:17:25.139Z,1003.42
2022-09-15T10:18:25.128Z,1003.41
2022-09-15T10:19:25.121Z,1003.46
2022-09-15T10:20:25.219Z,1003.36
2022-09-15T10:21:25.088Z,1003.40
2022-09-15T10:22:25.070Z,1003.38
2022-09-15T10:23:25.062Z,1003.41
2022-09-15T10:24:25.050Z,1003.41
2022-09-15T10:25:35.547Z,1003.41
2022-09-15T10:26:26.053Z,1003.39
2022-09-15T10:27:25.013Z,1003.46
2022-09-15T10:28:25.005Z,1003.38
2022-09-15T10:29:25.047Z,1003.46
2022-09-15T10:30:24.978Z,1003.45
2022-09-15T10:31:25.025Z,1003.40
2022-09-15T10:32:25.696Z,1003.41
2022-09-15T10:33:25.895Z,1003.35
2022-09-15T10:34:24.935Z,1003.34
2022-09-15T10:35:24.908Z,1003.33
2022-09-15T10:36:24.897Z,1003.22
2022-09-15T10:37:24.890Z,1003.32
2022-09-15T10:38:24.998Z,1003.35
2022-09-15T10:39:24.858Z,1003.31
2022-09-15T10:40:24.881Z,1003.34
2022-09-15T10:41:24.829Z,1003.31
2022-09-15T10:42:24.822Z,1003.30
2022-09-15T10:43:24.810Z,1003.31
2022-09-15T10:44:24.901Z,1003.25
2022-09-15T10:45:24.853Z,1003.35
2022-09-15T10:46:24.774Z,1003.30
2022-09-15T10:47:24.761Z,1003.32
2022-09-15T10:48:24.742Z,1003.31
2022-09-15T10:49:24.732Z,1003.38
2022-09-15T10:50:24.843Z,1003.34
2022-09-15T10:51:24.705Z,1003.33
2022-09-15T10:52:24.695Z,1003.23
2022-09-15T10:53:24.698Z,1003.25
2022-09-15T10:54:24.666Z,1003.18
2022-09-15T10:55:42.167Z,1003.20
2022-09-15T10:56:25.665Z,1003.21
2022-09-15T10:57:24.641Z,1003.20
2022-09-15T10:58:24.625Z,1003.20
2022-09-15T10:59:24.628Z,1003.18
2022-09-15T11:00:24.587Z,1003.19
2022-09-15T11:01:24.640Z,1003.42
2022-09-15T11:02:25.699Z,1003.24
2022-09-15T11:03:24.560Z,1003.21
2022-09-15T11:04:24.549Z,1003.27
2022-09-15T11:05:24.541Z,1003.25
2022-09-15T11:06:24.532Z,1003.31
2022-09-15T11:07:24.509Z,1003.34
2022-09-15T11:08:24.680Z,1003.42
2022-09-15T11:09:24.481Z,1003.36
2022-09-15T11:10:24.470Z,1003.35
2022-09-15T11:11:24.462Z,1003.32
2022-09-15T11:12:28.914Z,1003.34
2022-09-15T11:13:24.443Z,1003.36
2022-09-15T11:14:24.443Z,1003.33
2022-09-15T11:15:24.415Z,1003.34
2022-09-15T11:16:24.459Z,1003.41
2022-09-15T11:17:24.375Z,1003.45
2022-09-15T11:18:24.367Z,1003.34
2022-09-15T11:19:24.355Z,1003.44
2022-09-15T11:20:24.457Z,1003.30
2022-09-15T11:21:24.327Z,1003.36
2022-09-15T11:22:24.327Z,1003.38
2022-09-15T11:23:24.310Z,1003.39
2022-09-15T11:24:24.296Z,1003.31
2022-09-15T11:25:24.279Z,1003.33
2022-09-15T11:26:24.298Z,1003.36
2022-09-15T11:27:24.269Z,1003.37
2022-09-15T11:28:24.239Z,1003.40
2022-09-15T11:29:24.233Z,1003.43
2022-09-15T11:30:24.221Z,1003.45
2022-09-15T11:31:24.267Z,1003.42
2022-09-15T11:32:24.223Z,1003.44
2022-09-15T11:33:24.171Z,1003.47
2022-09-15T11:34:24.175Z,1003.48
2022-09-15T11:35:24.163Z,1003.43
2022-09-15T11:36:24.144Z,1003.51
2022-09-15T11:37:24.142Z,1003.48
2022-09-15T11:38:24.160Z,1003.49
2022-09-15T11:39:24.112Z,1003.58
2022-09-15T11:40:24.126Z,1003.52
2022-09-15T11:41:24.076Z,1003.49
2022-09-15T11:42:25.034Z,1003.46
2022-09-15T11:43:24.060Z,1003.52
2022-09-15T11:44:24.146Z,1003.48
2022-09-15T11:45:24.046Z,1003.57
2022-09-15T11:46:24.064Z,1003.44
2022-09-15T11:47:24.007Z,1003.53
2022-09-15T11:48:23.989Z,1003.51
2022-09-15T11:49:23.978Z,1003.48
2022-09-15T11:50:23.998Z,1003.46
2022-09-15T11:51:23.949Z,1003.36
2022-09-15T11:52:23.940Z,1003.43
2022-09-15T11:53:23.928Z,1003.49
2022-09-15T11:54:23.910Z,1003.43
2022-09-15T11:55:23.906Z,1003.48
2022-09-15T11:56:24.002Z,1003.47
2022-09-15T11:57:23.891Z,1003.52
2022-09-15T11:58:23.863Z,1003.43
2022-09-15T11:59:23.843Z,1003.41
2022-09-15T12:00:23.834Z,1003.38
2022-09-15T12:01:23.824Z,1003.40
2022-09-15T12:02:23.970Z,1003.45
2022-09-15T12:03:23.796Z,1003.38
2022-09-15T12:04:23.795Z,1003.38
2022-09-15T12:05:23.766Z,1003.34